createdAt,value
2022-08-23T00:00:45.760Z,100931.81
2022-08-23T00:01:54.367Z,100932.69
2022-08-23T00:02:57.155Z,100935.94
2022-08-23T00:04:04.677Z,100938.84
2022-08-23T00:05:08.995Z,100941.69
2022-08-23T00:06:12.169Z,100940.81
2022-08-23T00:07:15.817Z,100933.94
2022-08-23T00:08:30.948Z,100940.91
2022-08-23T00:09:34.406Z,100948.59
2022-08-23T00:10:36.473Z,100939.31
2022-08-23T00:12:15.794Z,100949.81
2022-08-23T00:13:17.971Z,100939.84
2022-08-23T00:14:25.140Z,100941.88
2022-08-23T00:15:27.766Z,100944.34
2022-08-23T00:16:30.039Z,100935.34
2022-08-23T00:17:34.181Z,100950.69
2022-08-23T00:18:37.254Z,100940.28
2022-08-23T00:19:40.326Z,100945.13
2022-08-23T00:20:43.084Z,100947.16
2022-08-23T00:21:46.983Z,100950.34
2022-08-23T00:22:49.164Z,100951.59
2022-08-23T00:23:51.365Z,100954.03
2022-08-23T00:24:53.657Z,100956.50
2022-08-23T00:25:55.788Z,100954.13
2022-08-23T00:27:05.208Z,100957.41
2022-08-23T00:28:14.965Z,100954.66
2022-08-23T00:29:17.571Z,100955.13
2022-08-23T00:30:19.718Z,100961.63
2022-08-23T00:31:22.197Z,100947.16
2022-08-23T00:33:28.177Z,100953.25
2022-08-23T00:34:30.676Z,100950.09
2022-08-23T00:35:33.688Z,100947.34
2022-08-23T00:36:36.335Z,100959.34
2022-08-23T00:37:39.309Z,100952.09
2022-08-23T00:38:42.289Z,100956.59
2022-08-23T00:39:45.311Z,100952.09
2022-08-23T00:40:51.364Z,100961.09
2022-08-23T00:41:59.241Z,100958.78
2022-08-23T00:43:26.887Z,100958.03
2022-08-23T00:45:12.495Z,100950.81
2022-08-23T00:46:49.847Z,100963.84
2022-08-23T00:47:52.188Z,100961.84
2022-08-23T00:48:55.851Z,100949.41
2022-08-23T00:50:23.640Z,100961.47
2022-08-23T00:51:52.287Z,100954.31
2022-08-23T00:53:12.484Z,100952.03
2022-08-23T00:54:17.301Z,100958.97
2022-08-23T00:55:21.504Z,100953.25
2022-08-23T00:56:26.321Z,100956.44
2022-08-23T00:57:34.319Z,100960.16
2022-08-23T00:58:36.588Z,100964.19
2022-08-23T00:59:39.566Z,100964.97
2022-08-23T01:00:42.202Z,100966.66
2022-08-23T01:01:44.423Z,100963.47
2022-08-23T01:02:51.250Z,100960.22
2022-08-23T01:04:04.318Z,100959.56
2022-08-23T01:05:08.368Z,100968.56
2022-08-23T01:06:34.388Z,100964.44
2022-08-23T01:07:53.397Z,100976.50
2022-08-23T01:09:02.455Z,100972.09
2022-08-23T01:10:20.020Z,100964.88
2022-08-23T01:11:41.281Z,100974.13
2022-08-23T01:12:51.079Z,100971.75
2022-08-23T01:13:58.699Z,100975.09
2022-08-23T01:15:15.866Z,100973.41
2022-08-23T01:16:34.252Z,100978.25
2022-08-23T01:17:46.520Z,100971.19
2022-08-23T01:18:49.797Z,100972.81
2022-08-23T01:19:59.623Z,100970.97
2022-08-23T01:21:13.816Z,100982.88
2022-08-23T01:22:47.995Z,100975.22
2022-08-23T01:23:55.836Z,100976.97
2022-08-23T01:25:07.439Z,100980.50
2022-08-23T01:26:21.724Z,100982.16
2022-08-23T01:27:25.267Z,100984.97
2022-08-23T01:28:27.703Z,100983.03
2022-08-23T01:29:30.012Z,100988.25
2022-08-23T01:30:34.620Z,100989.09
2022-08-23T01:31:37.943Z,100981.94
2022-08-23T01:32:46.028Z,100985.91
2022-08-23T01:33:56.621Z,100980.28
2022-08-23T01:34:59.148Z,100979.50
2022-08-23T01:36:02.441Z,100988.03
2022-08-23T01:37:10.222Z,100984.41
2022-08-23T01:38:13.766Z,100991.72
2022-08-23T01:39:16.994Z,100992.44
2022-08-23T01:40:19.388Z,100997.28
2022-08-23T01:41:24.178Z,100990.84
2022-08-23T01:42:26.465Z,100985.19
2022-08-23T01:43:29.115Z,100999.28
2022-08-23T01:44:31.845Z,100995.69
2022-08-23T01:45:35.136Z,100994.03
2022-08-23T01:46:38.146Z,100986.09
2022-08-23T01:47:42.957Z,100996.47
2022-08-23T01:48:47.097Z,100996.47
2022-08-23T01:49:50.293Z,101000.44
2022-08-23T01:50:52.504Z,101000.81
2022-08-23T01:51:56.314Z,101002.81
2022-08-23T01:52:59.990Z,101000.38
2022-08-23T01:54:04.813Z,101003.56
2022-08-23T01:55:07.890Z,101006.72
2022-08-23T01:56:15.472Z,101007.09
2022-08-23T01:57:17.966Z,100994.59
2022-08-23T01:58:20.912Z,101004.28
2022-08-23T01:59:24.421Z,100997.41
2022-08-23T02:00:33.252Z,100993.88
2022-08-23T02:01:35.661Z,100999.84
2022-08-23T02:02:38.830Z,101005.88
2022-08-23T02:03:42.142Z,101002.69
2022-08-23T02:04:44.403Z,101011.50
2022-08-23T02:05:47.001Z,101009.13
2022-08-23T02:06:49.821Z,101001.09
2022-08-23T02:07:57.437Z,101001.44
2022-08-23T02:09:04.808Z,101011.13
2022-08-23T02:10:11.485Z,101005.88
2022-08-23T02:11:17.828Z,101004.28
2022-08-23T02:12:22.442Z,101005.88
2022-08-23T02:13:27.978Z,101008.31
2022-08-23T02:14:33.293Z,100996.34
2022-08-23T02:15:36.907Z,100999.44
2022-08-23T02:16:58.046Z,101004.28
2022-08-23T02:18:07.457Z,101002.69
2022-08-23T02:19:12.559Z,101013.94
2022-08-23T02:20:15.367Z,101006.72
2022-08-23T02:21:19.467Z,101005.88
2022-08-23T02:22:22.745Z,101008.69
2022-08-23T02:23:25.185Z,101011.50
2022-08-23T02:24:27.956Z,101011.50
2022-08-23T02:25:31.341Z,101014.69
2022-08-23T02:26:38.532Z,101016.28
2022-08-23T02:27:43.914Z,101013.47
2022-08-23T02:28:51.943Z,101017.84
2022-08-23T02:29:59.602Z,101013.81
2022-08-23T02:31:05.889Z,101013.81
2022-08-23T02:32:13.065Z,101018.59
2022-08-23T02:33:16.443Z,101018.59
2022-08-23T02:34:20.785Z,101021.75
2022-08-23T02:35:24.651Z,101027.38
2022-08-23T02:36:28.340Z,101025.75
2022-08-23T02:37:31.728Z,101019.28
2022-08-23T02:38:36.235Z,101025.31
2022-08-23T02:39:39.722Z,101021.59
2022-08-23T02:40:42.984Z,101019.84
2022-08-23T02:41:50.361Z,101020.28
2022-08-23T02:42:53.775Z,101022.69
2022-08-23T02:43:57.370Z,101024.28
2022-08-23T02:44:59.762Z,101022.25
2022-08-23T02:46:03.460Z,101023.41
2022-08-23T02:47:07.957Z,101025.50
2022-08-23T02:48:12.061Z,101032.72
2022-08-23T02:49:26.661Z,101028.16
2022-08-23T02:50:28.863Z,101030.28
2022-08-23T02:51:31.223Z,101031.78
2022-08-23T02:52:34.303Z,101027.81
2022-08-23T02:53:37.369Z,101022.91
2022-08-23T02:54:42.813Z,101030.97
2022-08-23T02:55:47.036Z,101035.31
2022-08-23T02:56:49.543Z,101031.19
2022-08-23T02:57:52.039Z,101034.34
2022-08-23T02:58:54.970Z,101026.25
2022-08-23T02:59:58.729Z,101030.97
2022-08-23T03:01:01.488Z,101036.75
2022-08-23T03:02:08.824Z,101034.66
2022-08-23T03:03:15.225Z,101033.13
2022-08-23T03:04:17.889Z,101040.22
2022-08-23T03:05:20.361Z,101035.31
2022-08-23T03:06:25.783Z,101034.66
2022-08-23T03:07:28.657Z,101038.63
2022-08-23T03:08:33.821Z,101039.38
2022-08-23T03:09:36.836Z,101037.97
2022-08-23T03:10:43.933Z,101047.16
2022-08-23T03:11:48.650Z,101031.00
2022-08-23T03:12:51.960Z,101040.25
2022-08-23T03:13:56.723Z,101044.25
2022-08-23T03:15:00.077Z,101040.72
2022-08-23T03:16:02.889Z,101046.97
2022-08-23T03:17:07.388Z,101041.53
2022-08-23T03:18:13.244Z,101043.81
2022-08-23T03:19:15.887Z,101043.44
2022-08-23T03:20:18.543Z,101044.59
2022-08-23T03:21:22.880Z,101039.59
2022-08-23T03:22:25.658Z,101049.22
2022-08-23T03:23:29.578Z,101035.09
2022-08-23T03:24:31.955Z,101040.47
2022-08-23T03:25:36.529Z,101046.81
2022-08-23T03:27:02.935Z,101047.53
2022-08-23T03:28:07.223Z,101046.31
2022-08-23T03:29:14.181Z,101044.34
2022-08-23T03:30:37.288Z,101047.78
2022-08-23T03:31:41.741Z,101050.69
2022-08-23T03:32:48.874Z,101040.84
2022-08-23T03:33:52.941Z,101043.03
2022-08-23T03:34:55.745Z,101051.97
2022-08-23T03:36:00.930Z,101054.25
2022-08-23T03:37:07.766Z,101050.03
2022-08-23T03:38:12.208Z,101054.06
2022-08-23T03:39:16.123Z,101055.75
2022-08-23T03:40:21.270Z,101059.72
2022-08-23T03:41:25.997Z,101057.25
2022-08-23T03:42:30.930Z,101062.81
2022-08-23T03:43:34.127Z,101066.78
2022-08-23T03:44:38.657Z,101060.25
2022-08-23T03:45:41.765Z,101066.78
2022-08-23T03:46:46.975Z,101063.72
2022-08-23T03:47:50.868Z,101074.56
2022-08-23T03:49:02.195Z,101068.94
2022-08-23T03:50:15.049Z,101065.75
2022-08-23T03:51:21.169Z,101078.53
2022-08-23T03:52:36.573Z,101080.22
2022-08-23T03:53:39.166Z,101078.47
2022-08-23T03:54:46.823Z,101079.16
2022-08-23T03:55:57.299Z,101075.78
2022-08-23T03:57:05.805Z,101079.25
2022-08-23T03:59:31.737Z,101076.69
2022-08-23T04:00:36.094Z,101074.72
2022-08-23T04:01:42.304Z,101078.63
2022-08-23T04:08:00.048Z,101084.75
2022-08-23T04:09:12.191Z,101080.34
2022-08-23T04:10:16.306Z,101085.56
2022-08-23T04:11:22.886Z,101087.31
2022-08-23T04:12:32.892Z,101087.91
2022-08-23T04:13:43.367Z,101092.31
2022-08-23T04:16:22.082Z,101088.19
2022-08-23T04:17:37.467Z,101086.28
2022-08-23T04:18:41.144Z,101089.13
2022-08-23T04:20:10.211Z,101095.81
2022-08-23T04:21:25.288Z,101088.56
2022-08-23T04:22:27.673Z,101095.69
2022-08-23T04:23:35.793Z,101096.03
2022-08-23T04:24:56.277Z,101104.22
2022-08-23T04:25:59.191Z,101096.25
2022-08-23T04:27:07.409Z,101096.38
2022-08-23T04:28:11.462Z,101094.44
2022-08-23T04:29:24.847Z,101095.34
2022-08-23T04:30:39.407Z,101100.09
2022-08-23T04:31:44.132Z,101101.88
2022-08-23T04:32:51.689Z,101111.28
2022-08-23T04:33:56.687Z,101099.03
2022-08-23T04:34:59.989Z,101102.22
2022-08-23T04:36:04.898Z,101105.09
2022-08-23T04:37:09.363Z,101096.38
2022-08-23T04:38:24.677Z,101100.88
2022-08-23T04:39:32.809Z,101102.03
2022-08-23T04:40:56.783Z,101096.94
2022-08-23T04:42:18.000Z,101095.91
2022-08-23T04:43:22.102Z,101102.25
2022-08-23T04:44:26.291Z,101099.66
2022-08-23T04:45:30.302Z,101094.88
2022-08-23T04:46:32.846Z,101099.53
2022-08-23T04:47:39.473Z,101095.91
2022-08-23T04:48:46.305Z,101101.47
2022-08-23T04:49:50.487Z,101093.53
2022-08-23T04:50:53.679Z,101095.91
2022-08-23T04:53:39.137Z,101100.00
2022-08-23T04:55:01.688Z,101101.66
2022-08-23T04:56:25.540Z,101097.38
2022-08-23T04:57:30.878Z,101100.78
2022-08-23T04:59:54.356Z,101102.72
2022-08-23T05:01:01.187Z,101109.03
2022-08-23T05:02:05.991Z,101102.03
2022-08-23T05:03:10.519Z,101105.59
2022-08-23T05:04:19.765Z,101114.69
2022-08-23T05:05:29.669Z,101112.47
2022-08-23T05:06:32.960Z,101107.50
2022-08-23T05:07:42.670Z,101107.63
2022-08-23T05:08:46.824Z,101104.56
2022-08-23T05:09:49.790Z,101104.84
2022-08-23T05:10:54.216Z,101098.38
2022-08-23T05:11:56.745Z,101108.44
2022-08-23T05:13:00.555Z,101102.47
2022-08-23T05:14:02.939Z,101111.19
2022-08-23T05:15:07.967Z,101107.56
2022-08-23T05:16:10.929Z,101114.09
2022-08-23T05:17:19.249Z,101111.88
2022-08-23T05:18:22.999Z,101112.69
2022-08-23T05:19:27.438Z,101114.44
2022-08-23T05:20:30.235Z,101116.91
2022-08-23T05:21:32.496Z,101116.78
2022-08-23T05:22:41.295Z,101116.25
2022-08-23T05:24:18.304Z,101117.91
2022-08-23T05:25:23.037Z,101111.16
2022-08-23T05:26:28.323Z,101121.44
2022-08-23T05:27:30.854Z,101115.41
2022-08-23T05:28:35.047Z,101121.53
2022-08-23T05:29:38.670Z,101121.22
2022-08-23T05:30:41.103Z,101119.66
2022-08-23T05:31:50.137Z,101125.91
2022-08-23T05:32:53.618Z,101114.66
2022-08-23T05:33:57.570Z,101123.69
2022-08-23T05:35:07.655Z,101121.16
2022-08-23T05:36:17.211Z,101115.22
2022-08-23T05:37:19.645Z,101122.00
2022-08-23T05:38:24.571Z,101109.69
2022-08-23T05:39:36.130Z,101117.59
2022-08-23T05:40:42.608Z,101118.56
2022-08-23T05:41:48.249Z,101120.72
2022-08-23T05:42:51.217Z,101115.22
2022-08-23T05:44:14.799Z,101114.16
2022-08-23T05:45:21.886Z,101120.69
2022-08-23T05:46:28.453Z,101120.13
2022-08-23T05:48:04.690Z,101111.78
2022-08-23T05:49:28.532Z,101123.16
2022-08-23T05:50:37.660Z,101114.28
2022-08-23T05:51:39.879Z,101122.84
2022-08-23T05:54:07.582Z,101118.78
2022-08-23T05:55:09.781Z,101115.97
2022-08-23T05:56:42.756Z,101114.75
2022-08-23T05:57:50.011Z,101119.03
2022-08-23T05:58:59.127Z,101114.09
2022-08-23T06:00:03.144Z,101122.38
2022-08-23T06:01:06.941Z,101123.63
2022-08-23T06:02:10.126Z,101122.41
2022-08-23T06:03:12.258Z,101129.84
2022-08-23T06:04:16.242Z,101127.81
2022-08-23T06:05:26.571Z,101122.06
2022-08-23T06:07:00.961Z,101124.44
2022-08-23T06:08:41.699Z,101128.44
2022-08-23T06:09:49.192Z,101123.03
2022-08-23T06:11:08.944Z,101130.38
2022-08-23T06:12:16.608Z,101129.56
2022-08-23T06:13:19.724Z,101130.94
2022-08-23T06:14:21.980Z,101134.16
2022-08-23T06:15:24.735Z,101135.66
2022-08-23T06:16:36.991Z,101131.75
2022-08-23T06:17:39.750Z,101134.63
2022-08-23T06:18:42.887Z,101136.50
2022-08-23T06:20:03.947Z,101133.34
2022-08-23T06:21:16.845Z,101141.31
2022-08-23T06:22:25.044Z,101140.59
2022-08-23T06:23:29.433Z,101130.78
2022-08-23T06:24:31.861Z,101139.06
2022-08-23T06:25:41.129Z,101146.56
2022-08-23T06:26:49.266Z,101137.56
2022-08-23T06:27:52.748Z,101141.00
2022-08-23T06:28:57.242Z,101139.84
2022-08-23T06:30:02.402Z,101139.50
2022-08-23T06:31:05.737Z,101138.16
2022-08-23T06:32:11.169Z,101132.25
2022-08-23T06:33:21.009Z,101133.38
2022-08-23T06:34:46.631Z,101150.09
2022-08-23T06:36:18.946Z,101154.47
2022-08-23T06:37:50.465Z,101144.88
2022-08-23T06:39:12.709Z,101144.66
2022-08-23T06:40:35.511Z,101146.19
2022-08-23T06:42:05.450Z,101145.66
2022-08-23T06:43:18.801Z,101144.16
2022-08-23T06:44:30.466Z,101149.38
2022-08-23T06:45:55.131Z,101142.94
2022-08-23T06:47:01.275Z,101144.97
2022-08-23T06:48:41.786Z,101153.41
2022-08-23T06:49:50.921Z,101147.84
2022-08-23T06:51:26.734Z,101160.09
2022-08-23T06:52:48.822Z,101152.56
2022-08-23T06:54:02.916Z,101148.22
2022-08-23T06:55:28.075Z,101145.22
2022-08-23T06:56:51.649Z,101150.94
2022-08-23T06:57:57.751Z,101149.59
2022-08-23T06:59:17.662Z,101152.78
2022-08-23T07:00:57.498Z,101158.47
2022-08-23T07:02:09.981Z,101150.97
2022-08-23T07:03:32.363Z,101150.09
2022-08-23T07:04:57.214Z,101156.59
2022-08-23T07:06:27.360Z,101148.69
2022-08-23T07:07:37.586Z,101146.09
2022-08-23T07:08:44.474Z,101154.88
2022-08-23T07:09:54.849Z,101151.25
2022-08-23T07:10:57.689Z,101161.69
2022-08-23T07:12:01.786Z,101153.44
2022-08-23T07:13:05.550Z,101156.91
2022-08-23T07:14:11.408Z,101154.53
2022-08-23T07:15:13.992Z,101157.53
2022-08-23T07:16:26.102Z,101162.25
2022-08-23T07:17:28.361Z,101155.53
2022-08-23T07:18:33.350Z,101161.91
2022-08-23T07:19:36.286Z,101162.38
2022-08-23T07:20:39.061Z,101163.25
2022-08-23T07:21:42.014Z,101162.78
2022-08-23T07:22:44.734Z,101174.44
2022-08-23T07:23:47.611Z,101161.50
2022-08-23T07:24:50.276Z,101165.59
2022-08-23T07:25:53.556Z,101166.00
2022-08-23T07:26:59.109Z,101163.84
2022-08-23T07:28:02.390Z,101167.16
2022-08-23T07:29:06.605Z,101160.16
2022-08-23T07:30:09.367Z,101159.91
2022-08-23T07:31:27.572Z,101172.78
2022-08-23T07:32:29.863Z,101172.78
2022-08-23T07:33:53.830Z,101163.25
2022-08-23T07:34:57.435Z,101167.13
2022-08-23T07:36:00.322Z,101161.16
2022-08-23T07:37:04.461Z,101165.19
2022-08-23T07:38:16.088Z,101166.78
2022-08-23T07:39:21.016Z,101164.97
2022-08-23T07:40:23.305Z,101174.00
2022-08-23T07:41:36.091Z,101166.41
2022-08-23T07:42:40.367Z,101162.53
2022-08-23T07:43:43.056Z,101168.53
2022-08-23T07:44:46.223Z,101164.22
2022-08-23T07:45:49.407Z,101166.41
2022-08-23T07:46:55.462Z,101160.00
2022-08-23T07:47:57.825Z,101159.44
2022-08-23T07:49:01.922Z,101163.28
2022-08-23T07:50:13.095Z,101160.56
2022-08-23T07:51:15.684Z,101167.84
2022-08-23T07:52:18.691Z,101165.75
2022-08-23T07:53:37.447Z,101161.06
2022-08-23T07:54:41.562Z,101170.47
2022-08-23T07:56:05.488Z,101170.97
2022-08-23T07:57:27.586Z,101169.19
2022-08-23T07:58:48.676Z,101166.00
2022-08-23T08:00:09.451Z,101162.88
2022-08-23T08:01:34.624Z,101171.25
2022-08-23T08:02:36.885Z,101170.91
2022-08-23T08:03:40.320Z,101162.59
2022-08-23T08:04:49.734Z,101170.88
2022-08-23T08:05:52.374Z,101175.28
2022-08-23T08:07:16.973Z,101169.38
2022-08-23T08:08:19.362Z,101167.63
2022-08-23T08:09:22.711Z,101161.31
2022-08-23T08:10:25.617Z,101166.28
2022-08-23T08:11:34.467Z,101159.34
2022-08-23T08:12:38.320Z,101158.56
2022-08-23T08:13:52.196Z,101159.66
2022-08-23T08:14:55.447Z,101166.84
2022-08-23T08:16:05.515Z,101159.03
2022-08-23T08:17:09.797Z,101163.47
2022-08-23T08:18:40.000Z,101160.34
2022-08-23T08:20:21.968Z,101169.75
2022-08-23T08:21:42.498Z,101169.88
2022-08-23T08:23:04.088Z,101163.03
2022-08-23T08:24:26.378Z,101167.88
2022-08-23T08:25:34.464Z,101162.84
2022-08-23T08:26:41.687Z,101167.22
2022-08-23T08:27:43.971Z,101157.47
2022-08-23T08:28:46.127Z,101160.75
2022-08-23T08:29:48.196Z,101162.13
2022-08-23T08:30:50.224Z,101161.81
2022-08-23T08:31:54.281Z,101161.47
2022-08-23T08:32:57.006Z,101165.72
2022-08-23T08:33:59.362Z,101153.75
2022-08-23T08:35:03.724Z,101158.09
2022-08-23T08:36:07.528Z,101161.81
2022-08-23T08:37:09.991Z,101155.09
2022-08-23T08:38:11.996Z,101152.91
2022-08-23T08:39:22.044Z,101157.03
2022-08-23T08:40:31.659Z,101154.72
2022-08-23T08:42:18.277Z,101160.91
2022-08-23T08:43:42.425Z,101153.34
2022-08-23T08:44:59.033Z,101153.13
2022-08-23T08:46:22.056Z,101158.06
2022-08-23T08:47:54.744Z,101156.16
2022-08-23T08:49:02.158Z,101152.50
2022-08-23T08:50:33.764Z,101144.97
2022-08-23T08:51:48.938Z,101151.09
2022-08-23T08:52:54.269Z,101151.41
2022-08-23T08:54:17.623Z,101152.75
2022-08-23T08:55:39.046Z,101147.81
2022-08-23T08:56:43.007Z,101151.16
2022-08-23T08:57:55.443Z,101149.88
2022-08-23T08:59:02.782Z,101156.19
2022-08-23T09:00:10.756Z,101155.28
2022-08-23T09:01:20.222Z,101150.56
2022-08-23T09:02:32.628Z,101150.78
2022-08-23T09:03:40.652Z,101144.56
2022-08-23T09:04:46.372Z,101146.81
2022-08-23T09:06:04.490Z,101144.00
2022-08-23T09:07:31.280Z,101143.88
2022-08-23T09:08:50.962Z,101142.44
2022-08-23T09:10:03.781Z,101144.78
2022-08-23T09:11:20.817Z,101135.41
2022-08-23T09:12:38.028Z,101143.19
2022-08-23T09:13:46.248Z,101134.44
2022-08-23T09:15:15.735Z,101136.81
2022-08-23T09:16:50.750Z,101144.84
2022-08-23T09:17:57.286Z,101137.75
2022-08-23T09:19:02.498Z,101144.72
2022-08-23T09:20:06.575Z,101135.56
2022-08-23T09:21:10.305Z,101137.66
2022-08-23T09:22:17.487Z,101131.09
2022-08-23T09:23:29.786Z,101129.00
2022-08-23T09:24:32.793Z,101133.44
2022-08-23T09:25:57.889Z,101126.19
2022-08-23T09:27:09.657Z,101140.09
2022-08-23T09:28:14.463Z,101131.38
2022-08-23T09:29:25.448Z,101121.69
2022-08-23T09:30:55.102Z,101129.56
2022-08-23T09:32:06.420Z,101140.50
2022-08-23T09:33:21.581Z,101130.09
2022-08-23T09:34:36.007Z,101133.19
2022-08-23T09:36:02.258Z,101133.44
2022-08-23T09:37:23.128Z,101132.81
2022-08-23T09:38:27.178Z,101128.31
2022-08-23T09:39:37.602Z,101130.41
2022-08-23T09:40:51.591Z,101129.34
2022-08-23T09:41:54.096Z,101133.66
2022-08-23T09:43:13.498Z,101126.75
2022-08-23T09:44:36.686Z,101120.47
2022-08-23T09:45:55.761Z,101121.19
2022-08-23T09:47:07.719Z,101127.31
2022-08-23T09:48:14.815Z,101126.22
2022-08-23T09:49:30.668Z,101131.25
2022-08-23T09:50:51.023Z,101129.44
2022-08-23T09:51:56.056Z,101129.75
2022-08-23T09:53:05.196Z,101134.13
2022-08-23T09:54:19.247Z,101132.50
2022-08-23T09:55:32.681Z,101122.00
2022-08-23T09:56:41.360Z,101127.69
2022-08-23T09:57:48.636Z,101125.38
2022-08-23T09:58:54.647Z,101121.81
2022-08-23T10:00:29.122Z,101118.09
2022-08-23T10:01:39.304Z,101123.88
2022-08-23T10:02:47.393Z,101123.22
2022-08-23T10:04:14.676Z,101120.06
2022-08-23T10:05:30.155Z,101119.59
2022-08-23T10:06:34.396Z,101124.00
2022-08-23T10:07:52.207Z,101121.44
2022-08-23T10:08:58.549Z,101120.56
2022-08-23T10:10:24.816Z,101114.63
2022-08-23T10:11:33.472Z,101110.63
2022-08-23T10:12:36.602Z,101110.66
2022-08-23T10:13:42.149Z,101115.44
2022-08-23T10:14:45.144Z,101111.75
2022-08-23T10:16:23.646Z,101124.00
2022-08-23T10:17:59.761Z,101118.88
2022-08-23T10:19:18.307Z,101116.75
2022-08-23T10:20:28.211Z,101107.72
2022-08-23T10:21:52.247Z,101117.31
2022-08-23T10:23:09.418Z,101119.28
2022-08-23T10:24:45.182Z,101115.28
2022-08-23T10:26:01.584Z,101117.56
2022-08-23T10:27:30.457Z,101098.56
2022-08-23T10:29:13.260Z,101098.91
2022-08-23T10:30:26.895Z,101108.13
2022-08-23T10:31:41.448Z,101109.66
2022-08-23T10:33:14.350Z,101114.09
2022-08-23T10:34:24.248Z,101112.03
2022-08-23T10:35:39.223Z,101115.84
2022-08-23T10:37:05.942Z,101115.06
2022-08-23T10:38:28.816Z,101115.97
2022-08-23T10:39:33.841Z,101118.31
2022-08-23T10:41:04.515Z,101116.22
2022-08-23T10:42:31.870Z,101106.78
2022-08-23T10:43:40.516Z,101103.19
2022-08-23T10:44:59.246Z,101103.00
2022-08-23T10:46:03.066Z,101108.56
2022-08-23T10:47:38.053Z,101109.34
2022-08-23T10:48:57.154Z,101121.88
2022-08-23T10:50:08.281Z,101105.31
2022-08-23T10:51:23.029Z,101109.66
2022-08-23T10:52:40.702Z,101109.03
2022-08-23T10:53:57.092Z,101118.00
2022-08-23T10:55:17.432Z,101109.94
2022-08-23T10:56:22.025Z,101111.53
2022-08-23T10:57:40.508Z,101115.44
2022-08-23T10:58:54.545Z,101110.03
2022-08-23T10:59:59.330Z,101112.34
2022-08-23T11:01:03.291Z,101119.75
2022-08-23T11:02:33.422Z,101105.00
2022-08-23T11:04:01.636Z,101109.69
2022-08-23T11:05:33.841Z,101119.72
2022-08-23T11:06:49.776Z,101115.75
2022-08-23T11:08:05.275Z,101112.34
2022-08-23T11:09:30.446Z,101115.91
2022-08-23T11:10:53.746Z,101102.09
2022-08-23T11:12:22.091Z,101105.78
2022-08-23T11:13:28.933Z,101103.59
2022-08-23T11:14:30.951Z,101109.59
2022-08-23T11:16:01.216Z,101107.44
2022-08-23T11:17:11.033Z,101107.16
2022-08-23T11:18:34.319Z,101111.81
2022-08-23T11:19:52.744Z,101105.47
2022-08-23T11:21:07.842Z,101124.28
2022-08-23T11:22:26.290Z,101110.25
2022-08-23T11:23:41.865Z,101130.03
2022-08-23T11:25:04.283Z,101109.16
2022-08-23T11:26:22.877Z,101107.34
2022-08-23T11:27:31.894Z,101109.88
2022-08-23T11:28:44.605Z,101100.53
2022-08-23T11:29:47.366Z,101104.94
2022-08-23T11:31:35.139Z,101098.78
2022-08-23T11:32:42.854Z,101106.06
2022-08-23T11:33:53.850Z,101098.03
2022-08-23T11:35:09.112Z,101098.34
2022-08-23T11:36:22.013Z,101107.97
2022-08-23T11:37:28.743Z,101102.75
2022-08-23T11:39:01.793Z,101100.84
2022-08-23T11:40:08.762Z,101112.34
2022-08-23T11:41:37.238Z,101099.75
2022-08-23T11:42:39.315Z,101096.19
2022-08-23T11:43:46.448Z,101099.19
2022-08-23T11:44:49.930Z,101107.75
2022-08-23T11:45:53.763Z,101101.31
2022-08-23T11:47:03.474Z,101114.25
2022-08-23T11:48:37.402Z,101105.91
2022-08-23T11:50:03.002Z,101098.84
2022-08-23T11:51:18.741Z,101114.13
2022-08-23T11:52:32.953Z,101097.94
2022-08-23T11:54:07.535Z,101093.53
2022-08-23T11:55:12.394Z,101095.25
2022-08-23T11:56:35.544Z,101105.16
2022-08-23T11:58:26.782Z,101097.78
2022-08-23T11:59:55.087Z,101097.97
2022-08-23T12:01:08.200Z,101093.38
2022-08-23T12:02:38.225Z,101098.97
2022-08-23T12:04:00.232Z,101102.88
2022-08-23T12:05:20.467Z,101090.06
2022-08-23T12:06:42.749Z,101103.97
2022-08-23T12:08:01.240Z,101097.38
2022-08-23T12:09:13.779Z,101100.19
2022-08-23T12:10:37.292Z,101094.03
2022-08-23T12:12:02.443Z,101102.25
2022-08-23T12:13:28.138Z,101105.94
2022-08-23T12:14:32.987Z,101104.53
2022-08-23T12:16:06.258Z,101089.94
2022-08-23T12:17:19.225Z,101088.50
2022-08-23T12:18:24.996Z,101093.22
2022-08-23T12:19:49.474Z,101091.84
2022-08-23T12:20:59.323Z,101098.44
2022-08-23T12:22:19.003Z,101097.03
2022-08-23T12:23:21.762Z,101085.38
2022-08-23T12:24:40.214Z,101098.91
2022-08-23T12:25:43.022Z,101086.44
2022-08-23T12:26:59.294Z,101081.50
2022-08-23T12:28:12.006Z,101082.09
2022-08-23T12:29:26.583Z,101083.09
2022-08-23T12:30:50.591Z,101084.72
2022-08-23T12:32:31.351Z,101091.72
2022-08-23T12:33:33.589Z,101090.13
2022-08-23T12:34:45.291Z,101087.25
2022-08-23T12:36:15.466Z,101093.28
2022-08-23T12:38:00.619Z,101082.91
2022-08-23T12:39:20.065Z,101083.69
2022-08-23T12:40:30.248Z,101087.56
2022-08-23T12:41:55.966Z,101083.13
2022-08-23T12:43:22.255Z,101091.06
2022-08-23T12:44:29.699Z,101083.56
2022-08-23T12:45:40.082Z,101083.34
2022-08-23T12:46:45.142Z,101087.00
2022-08-23T12:47:58.459Z,101090.47
2022-08-23T12:49:02.061Z,101083.13
2022-08-23T12:50:26.093Z,101082.38
2022-08-23T12:51:48.975Z,101085.72
2022-08-23T12:53:03.418Z,101086.63
2022-08-23T12:54:17.480Z,101091.25
2022-08-23T12:55:20.631Z,101078.97
2022-08-23T12:56:28.166Z,101082.66
2022-08-23T12:57:37.708Z,101080.34
2022-08-23T12:58:46.053Z,101081.31
2022-08-23T13:00:18.763Z,101082.16
2022-08-23T13:01:35.814Z,101085.50
2022-08-23T13:02:39.570Z,101081.59
2022-08-23T13:03:47.504Z,101084.16
2022-08-23T13:04:51.195Z,101079.78
2022-08-23T13:05:53.222Z,101078.81
2022-08-23T13:07:04.624Z,101081.16
2022-08-23T13:08:11.703Z,101075.47
2022-08-23T13:09:17.221Z,101082.91
2022-08-23T13:10:19.598Z,101077.16
2022-08-23T13:11:25.999Z,101077.47
2022-08-23T13:12:28.495Z,101071.13
2022-08-23T13:13:31.432Z,101079.44
2022-08-23T13:14:44.830Z,101070.44
2022-08-23T13:15:51.915Z,101073.56
2022-08-23T13:16:55.690Z,101079.56
2022-08-23T13:18:02.595Z,101078.00
2022-08-23T13:19:32.255Z,101076.19
2022-08-23T13:20:34.623Z,101069.63
2022-08-23T13:21:39.963Z,101085.03
2022-08-23T13:23:00.508Z,101077.97
2022-08-23T13:24:37.829Z,101070.34
2022-08-23T13:25:43.038Z,101067.47
2022-08-23T13:26:47.287Z,101074.59
2022-08-23T13:27:49.395Z,101077.09
2022-08-23T13:29:22.988Z,101080.25
2022-08-23T13:30:30.083Z,101079.13
2022-08-23T13:32:04.095Z,101074.91
2022-08-23T13:33:10.610Z,101074.78
2022-08-23T13:34:34.719Z,101065.69
2022-08-23T13:35:40.695Z,101072.19
2022-08-23T13:36:44.672Z,101076.66
2022-08-23T13:37:47.468Z,101075.63
2022-08-23T13:38:50.231Z,101073.31
2022-08-23T13:39:59.404Z,101068.03
2022-08-23T13:41:01.519Z,101069.03
2022-08-23T13:42:04.175Z,101062.84